Terminal Aerodrome Forecast
Issued by NWS Charleston, SC

Home | Current Version | Previous Version | Text Only | Print | Product List | Glossary On
Versions: 1 2 3 4 5 6 7 8 9 10 11 12 13 14 15 16 17 18 19 20 21 22 23 24 25 26 27 28 29 30 31 32 33 34 35 36 37 38 39 40 41 42 43 44 45 46 47
000
FTUS42 KCHS 162100 AAD
TAFCHS
TAF AMD
KCHS 162103Z 1621/1718 VRB06KT 6SM -TSRA SCT025CB OVC030
      TEMPO 1621/1623 2SM +TSRA BR SCT015 OVC025CB
     FM170100 VRB03KT 6SM BR FEW015 SCT050 BKN120
     FM170900 VRB02KT 4SM BR SCT008 BKN015
     FM171330 VRB04KT P6SM SCT015 BKN035=

USA.gov is the U.S. government's official web portal to all federal, state and local government web resources and services.